Time;durP1;ratioP1;P1;durP2;ratioP2;P2;SDS_P1;SDS_P2;PMS_P1;PMS_P2;Temp;Humidity;BMP_temperature;BMP_pressure;BME280_temperature;BME280_humidity;BME280_pressure;Samples;Min_cycle;Max_cycle;Signal;HPM_P1;HPM_P2
2021/01/23 00:02:26;;;;;;;15.57;8.63;;;6.20;99.90;;;;;;5109101;27;20547;-68
2021/01/23 00:04:53;;;;;;;12.77;7.30;;;6.30;99.90;;;;;;5114247;28;20122;-68
2021/01/23 00:07:19;;;;;;;12.75;7.15;;;6.30;99.90;;;;;;5110192;28;20067;-68
2021/01/23 00:09:45;;;;;;;12.18;6.95;;;6.20;99.90;;;;;;5111173;28;20118;-68
2021/01/23 00:12:11;;;;;;;10.13;6.18;;;6.20;99.90;;;;;;5109672;28;20102;-67
2021/01/23 00:14:38;;;;;;;10.80;5.50;;;6.30;99.90;;;;;;5111486;28;20058;-67
2021/01/23 00:17:05;;;;;;;12.73;5.72;;;6.30;99.90;;;;;;5110690;28;20132;-68
2021/01/23 00:19:32;;;;;;;11.98;5.53;;;6.30;99.90;;;;;;5108101;28;20044;-67
2021/01/23 00:21:58;;;;;;;8.65;4.90;;;6.30;99.90;;;;;;5111269;28;20051;-67
2021/01/23 00:24:24;;;;;;;11.15;5.30;;;6.30;99.90;;;;;;5110814;27;20097;-67
2021/01/23 00:26:51;;;;;;;8.95;5.28;;;6.40;99.90;;;;;;5111494;28;20071;-67
2021/01/23 00:29:17;;;;;;;9.15;5.22;;;6.40;99.90;;;;;;5108617;27;20062;-68
2021/01/23 00:31:43;;;;;;;11.93;5.57;;;6.30;99.90;;;;;;5110719;28;20443;-68
2021/01/23 00:34:10;;;;;;;12.18;5.97;;;6.30;99.90;;;;;;5109355;28;20092;-67
2021/01/23 00:36:38;;;;;;;8.30;4.65;;;6.30;99.90;;;;;;5114965;28;20067;-67
2021/01/23 00:39:05;;;;;;;8.57;4.70;;;6.30;99.90;;;;;;5106681;28;20043;-67
2021/01/23 00:41:32;;;;;;;7.97;4.60;;;6.50;99.90;;;;;;5109067;28;20050;-67
2021/01/23 00:43:59;;;;;;;9.43;5.28;;;6.30;99.90;;;;;;5104048;28;20509;-67
2021/01/23 00:46:25;;;;;;;9.52;5.30;;;6.30;99.90;;;;;;5110184;28;20449;-68
2021/01/23 00:48:52;;;;;;;11.25;5.38;;;6.20;99.90;;;;;;5103403;28;20051;-67
2021/01/23 00:51:18;;;;;;;10.43;5.57;;;6.10;99.90;;;;;;5113976;28;20471;-67
2021/01/23 00:53:45;;;;;;;10.05;5.45;;;6.00;99.90;;;;;;5107030;28;20135;-67
2021/01/23 00:56:11;;;;;;;7.82;5.30;;;6.00;99.90;;;;;;5103137;28;20555;-67
2021/01/23 00:58:38;;;;;;;13.25;4.97;;;6.00;99.90;;;;;;5111788;28;20047;-68
2021/01/23 01:01:05;;;;;;;6.38;4.28;;;5.90;99.90;;;;;;5109527;28;20075;-67
2021/01/23 01:03:33;;;;;;;8.90;4.15;;;5.80;99.90;;;;;;5108279;28;20506;-67
2021/01/23 01:06:00;;;;;;;7.70;3.92;;;5.80;99.90;;;;;;5110344;28;20078;-68
2021/01/23 01:08:26;;;;;;;11.48;5.90;;;5.80;99.90;;;;;;5109437;28;20449;-67
2021/01/23 01:10:54;;;;;;;6.93;4.18;;;5.80;99.90;;;;;;5113011;28;20139;-67
2021/01/23 01:13:20;;;;;;;8.05;3.90;;;5.80;99.90;;;;;;5106787;28;20486;-67
2021/01/23 01:15:47;;;;;;;9.88;4.10;;;5.80;99.90;;;;;;5104492;28;20044;-67
2021/01/23 01:18:13;;;;;;;9.10;4.28;;;5.90;99.90;;;;;;5111358;28;20044;-65
2021/01/23 01:20:40;;;;;;;9.55;3.45;;;5.90;99.90;;;;;;5108604;28;20047;-66
2021/01/23 01:23:07;;;;;;;7.10;4.15;;;5.90;99.90;;;;;;5109799;28;20066;-65
2021/01/23 01:25:33;;;;;;;6.63;3.78;;;6.00;99.90;;;;;;5111767;28;20650;-65
2021/01/23 01:27:59;;;;;;;10.88;4.15;;;6.00;99.90;;;;;;5108306;27;20090;-65
2021/01/23 01:30:26;;;;;;;6.57;3.22;;;6.10;99.90;;;;;;5110638;28;20044;-65
2021/01/23 01:32:52;;;;;;;8.25;3.50;;;6.20;99.90;;;;;;5105548;28;20067;-65
2021/01/23 01:35:18;;;;;;;6.70;3.20;;;6.30;99.90;;;;;;5105235;27;20467;-65
2021/01/23 01:37:45;;;;;;;5.95;3.30;;;6.30;99.90;;;;;;5111637;28;20134;-65
2021/01/23 01:40:12;;;;;;;10.38;3.50;;;6.30;99.90;;;;;;5107628;28;20478;-65
2021/01/23 01:42:38;;;;;;;4.45;2.88;;;6.30;99.90;;;;;;5112072;28;20727;-65
2021/01/23 01:45:06;;;;;;;5.22;2.83;;;6.30;99.90;;;;;;5107592;28;20075;-65
2021/01/23 01:47:36;;;;;;;5.53;3.17;;;6.40;99.90;;;;;;5100951;28;20075;-65
2021/01/23 01:50:04;;;;;;;4.78;2.78;;;6.40;99.90;;;;;;5101236;28;20058;-65
2021/01/23 01:52:31;;;;;;;4.00;3.10;;;6.40;99.90;;;;;;5108459;28;20043;-64
2021/01/23 01:54:58;;;;;;;6.55;3.22;;;6.40;99.90;;;;;;5107460;28;20083;-64
2021/01/23 01:57:25;;;;;;;4.22;2.35;;;6.40;99.90;;;;;;5111904;28;20048;-64
2021/01/23 01:59:51;;;;;;;2.88;1.98;;;6.40;99.90;;;;;;5106803;28;20469;-64
2021/01/23 02:02:51;;;;;;;2.70;2.22;;;6.30;99.90;;;;;;5095350;27;20147;-64
2021/01/23 02:05:23;;;;;;;4.05;2.17;;;6.30;99.90;;;;;;5104353;28;20097;-64
2021/01/23 02:08:18;;;;;;;6.32;2.38;;;6.30;97.60;;;;;;5105288;28;20570;-64
2021/01/23 02:11:25;;;;;;;7.55;2.38;;;6.40;98.20;;;;;;5107983;27;20439;-64
2021/01/23 02:14:00;;;;;;;7.75;2.83;;;6.50;99.00;;;;;;5091635;28;20075;-64
2021/01/23 02:16:46;;;;;;;4.50;2.97;;;6.50;98.00;;;;;;5106732;28;20075;-64
2021/01/23 02:19:29;;;;;;;4.40;2.60;;;6.40;98.20;;;;;;5106531;28;20040;-64
2021/01/23 02:22:01;;;;;;;7.40;2.60;;;6.30;99.90;;;;;;5110230;28;20558;-64
2021/01/23 02:24:30;;;;;;;4.32;2.65;;;6.40;99.90;;;;;;5108020;28;20128;-64
2021/01/23 02:27:20;;;;;;;5.15;2.38;;;6.20;99.90;;;;;;5105983;28;20127;-65
2021/01/23 02:30:12;;;;;;;5.45;2.92;;;6.20;99.90;;;;;;5108317;28;20051;-65
2021/01/23 02:32:40;;;;;;;4.90;2.95;;;6.20;99.90;;;;;;5106575;28;20139;-65
2021/01/23 02:35:09;;;;;;;3.20;2.60;;;6.20;99.90;;;;;;5104831;28;20375;-65
2021/01/23 02:37:37;;;;;;;6.28;2.67;;;6.20;99.90;;;;;;5108224;28;20082;-65
2021/01/23 02:40:04;;;;;;;8.30;2.70;;;6.30;99.90;;;;;;5105616;28;20086;-64
2021/01/23 02:42:31;;;;;;;4.10;2.20;;;6.30;99.90;;;;;;5109766;28;20101;-67
2021/01/23 02:44:58;;;;;;;7.72;2.70;;;6.10;99.90;;;;;;5109969;28;20090;-65
2021/01/23 02:47:24;;;;;;;7.68;2.83;;;6.10;99.90;;;;;;5102962;28;20113;-65
2021/01/23 02:49:51;;;;;;;6.53;3.05;;;6.10;99.90;;;;;;5099314;28;20093;-65
2021/01/23 02:52:47;;;;;;;7.70;3.08;;;6.10;99.90;;;;;;5110376;28;20484;-65
2021/01/23 02:55:19;;;;;;;4.70;2.65;;;6.10;99.90;;;;;;5106149;28;20096;-65
2021/01/23 02:57:47;;;;;;;4.68;2.55;;;6.10;99.90;;;;;;5107328;28;20130;-65
2021/01/23 03:00:16;;;;;;;4.28;2.58;;;6.10;99.90;;;;;;5110067;28;20044;-65
2021/01/23 03:02:55;;;;;;;4.80;2.70;;;6.30;99.90;;;;;;5107254;28;20130;-64
2021/01/23 03:05:26;;;;;;;4.43;2.88;;;6.10;99.90;;;;;;5104472;28;20044;-64
2021/01/23 03:07:54;;;;;;;3.53;2.47;;;6.10;99.90;;;;;;5110184;28;20104;-64
2021/01/23 03:10:44;;;;;;;5.53;2.60;;;6.10;99.90;;;;;;5105988;28;20090;-64
2021/01/23 03:13:12;;;;;;;3.10;2.40;;;6.00;99.90;;;;;;5109836;28;20213;-64
2021/01/23 03:15:40;;;;;;;4.57;3.10;;;6.00;99.90;;;;;;5105908;28;20047;-64
2021/01/23 03:18:07;;;;;;;6.22;3.17;;;6.00;99.90;;;;;;5106191;28;20044;-65
2021/01/23 03:20:33;;;;;;;6.55;2.90;;;6.00;99.90;;;;;;5110591;28;20044;-64
2021/01/23 03:23:01;;;;;;;8.18;2.95;;;5.90;99.90;;;;;;5111213;28;20083;-64
2021/01/23 03:25:29;;;;;;;6.47;2.72;;;5.90;99.90;;;;;;5109282;28;20059;-64
2021/01/23 03:27:56;;;;;;;8.23;3.20;;;5.90;99.90;;;;;;5113801;28;20123;-64
2021/01/23 03:30:23;;;;;;;6.43;3.15;;;5.90;99.90;;;;;;5111942;28;20101;-64
2021/01/23 03:32:50;;;;;;;8.73;3.28;;;6.00;99.90;;;;;;5106209;28;20131;-65
2021/01/23 03:35:18;;;;;;;7.10;3.92;;;5.90;99.90;;;;;;5105536;28;20452;-64
2021/01/23 03:37:44;;;;;;;7.68;2.92;;;6.00;99.90;;;;;;5109492;28;20070;-64
2021/01/23 03:40:11;;;;;;;5.60;3.63;;;5.90;99.90;;;;;;5104919;28;20444;-64
2021/01/23 03:42:38;;;;;;;6.68;3.72;;;5.90;99.90;;;;;;5115728;28;20134;-64
2021/01/23 03:45:09;;;;;;;5.05;3.33;;;5.90;99.90;;;;;;5111921;27;20082;-65
2021/01/23 03:47:36;;;;;;;7.68;3.50;;;5.90;99.90;;;;;;5109910;28;20054;-64
2021/01/23 03:50:04;;;;;;;6.95;3.80;;;5.90;99.90;;;;;;5111528;28;20056;-65
2021/01/23 03:52:31;;;;;;;7.10;3.70;;;5.90;99.90;;;;;;5108156;28;20075;-64
2021/01/23 03:54:57;;;;;;;8.80;3.63;;;5.90;99.90;;;;;;5112880;28;20078;-64
2021/01/23 03:57:24;;;;;;;5.35;3.20;;;5.90;99.90;;;;;;5110886;27;20395;-65
2021/01/23 03:59:50;;;;;;;7.00;4.07;;;5.90;99.90;;;;;;5111938;28;20101;-64
2021/01/23 04:02:16;;;;;;;8.65;3.53;;;5.80;99.90;;;;;;5104653;27;20437;-66
2021/01/23 04:04:43;;;;;;;7.15;4.15;;;5.80;99.90;;;;;;5113121;28;20058;-65
2021/01/23 04:07:09;;;;;;;6.35;3.75;;;5.80;99.90;;;;;;5115776;27;20102;-65
2021/01/23 04:09:35;;;;;;;5.25;3.80;;;5.80;99.90;;;;;;5111748;28;20075;-65
2021/01/23 04:12:03;;;;;;;6.30;3.67;;;5.80;99.90;;;;;;5109361;27;20082;-65
2021/01/23 04:14:29;;;;;;;6.05;3.53;;;5.80;99.90;;;;;;5102492;28;20123;-65
2021/01/23 04:16:55;;;;;;;6.63;4.13;;;6.00;99.90;;;;;;5107744;28;20474;-65
2021/01/23 04:19:22;;;;;;;5.32;3.40;;;6.00;99.90;;;;;;5112268;28;20130;-65
2021/01/23 04:21:48;;;;;;;7.88;4.20;;;5.90;99.90;;;;;;5107344;28;20043;-65
2021/01/23 04:24:14;;;;;;;7.45;3.75;;;6.00;99.90;;;;;;5106522;27;20445;-65
2021/01/23 04:26:41;;;;;;;6.13;3.65;;;6.00;99.90;;;;;;5111170;28;20048;-65
2021/01/23 04:29:07;;;;;;;10.02;4.03;;;6.10;99.90;;;;;;5112642;27;20047;-65
2021/01/23 04:31:35;;;;;;;8.60;3.85;;;6.00;99.90;;;;;;5106191;28;20044;-65
2021/01/23 04:34:02;;;;;;;6.50;3.85;;;5.80;99.90;;;;;;5109883;28;20052;-65
2021/01/23 04:36:29;;;;;;;7.00;4.10;;;5.80;99.90;;;;;;5111949;28;20444;-65
2021/01/23 04:38:55;;;;;;;7.05;4.03;;;5.80;99.90;;;;;;5109330;28;20044;-65
2021/01/23 04:41:21;;;;;;;8.85;3.83;;;5.70;99.90;;;;;;5109848;28;20091;-64
2021/01/23 04:43:48;;;;;;;5.90;3.83;;;5.70;99.90;;;;;;5110650;28;20056;-64
2021/01/23 04:46:18;;;;;;;6.65;3.58;;;5.50;99.90;;;;;;5109871;28;20056;-64
2021/01/23 04:48:44;;;;;;;6.23;3.23;;;5.40;99.90;;;;;;5112833;28;20101;-64
2021/01/23 04:51:11;;;;;;;10.65;4.22;;;5.40;99.90;;;;;;5108932;28;20538;-64
2021/01/23 04:53:39;;;;;;;6.47;3.85;;;5.40;99.90;;;;;;5098374;28;20035;-64
2021/01/23 04:56:06;;;;;;;9.35;3.85;;;5.50;99.90;;;;;;5112862;28;20044;-64
2021/01/23 04:58:36;;;;;;;6.85;3.95;;;5.40;99.90;;;;;;5110056;28;20047;-64
2021/01/23 05:01:02;;;;;;;7.20;3.78;;;5.40;99.90;;;;;;5107987;28;20055;-64
2021/01/23 05:03:29;;;;;;;7.20;3.75;;;5.40;99.90;;;;;;5110824;28;20097;-64
2021/01/23 05:06:07;;;;;;;6.15;3.80;;;5.50;99.90;;;;;;5105391;28;20540;-64
2021/01/23 05:08:37;;;;;;;5.38;3.58;;;5.40;99.90;;;;;;5109532;28;20081;-64
2021/01/23 05:11:05;;;;;;;7.40;4.07;;;5.40;99.90;;;;;;5111647;28;20079;-64
2021/01/23 05:13:31;;;;;;;6.05;4.22;;;5.50;99.90;;;;;;5104031;28;20082;-64
2021/01/23 05:15:58;;;;;;;7.07;4.07;;;5.60;99.90;;;;;;5107265;28;20043;-64
2021/01/23 05:18:24;;;;;;;10.60;4.22;;;5.50;99.90;;;;;;5111062;28;20083;-64
2021/01/23 05:20:52;;;;;;;6.72;4.65;;;5.40;99.90;;;;;;5108953;28;20479;-65
2021/01/23 05:23:26;;;;;;;6.97;4.40;;;5.40;99.90;;;;;;5107295;28;20052;-65
2021/01/23 05:25:57;;;;;;;9.07;4.72;;;5.40;99.90;;;;;;5107372;28;20554;-65
2021/01/23 05:28:34;;;;;;;8.50;4.80;;;5.40;99.90;;;;;;5110646;28;20044;-65
2021/01/23 05:31:02;;;;;;;7.40;4.50;;;5.30;99.90;;;;;;5110027;28;23060;-64
2021/01/23 05:33:31;;;;;;;6.57;4.30;;;5.30;99.90;;;;;;5107780;28;20075;-65
2021/01/23 05:35:57;;;;;;;11.52;4.57;;;5.40;99.90;;;;;;5104467;28;20047;-65
2021/01/23 05:38:29;;;;;;;7.93;4.95;;;5.20;99.90;;;;;;5111530;28;20071;-65
2021/01/23 05:41:04;;;;;;;9.35;4.55;;;5.20;99.90;;;;;;5106217;28;20441;-65
2021/01/23 05:43:39;;;;;;;9.43;5.15;;;5.00;99.90;;;;;;5106406;28;20082;-65
2021/01/23 05:46:09;;;;;;;11.93;4.88;;;5.10;99.90;;;;;;5106925;28;20043;-65
2021/01/23 05:48:55;;;;;;;9.65;5.05;;;5.00;99.90;;;;;;5109531;28;20050;-64
2021/01/23 05:51:23;;;;;;;7.25;4.50;;;5.00;99.90;;;;;;5109248;27;20039;-65
2021/01/23 05:53:49;;;;;;;10.13;4.95;;;4.80;99.90;;;;;;5110841;28;20048;-64
2021/01/23 05:56:16;;;;;;;8.82;4.72;;;4.90;99.90;;;;;;5108215;28;20460;-65
2021/01/23 05:58:44;;;;;;;10.80;4.70;;;4.80;99.90;;;;;;5111731;28;20056;-65
2021/01/23 06:01:14;;;;;;;8.43;5.00;;;4.80;99.90;;;;;;5106166;28;20078;-65
2021/01/23 06:03:44;;;;;;;7.65;4.93;;;4.60;99.90;;;;;;5109765;28;20056;-65
2021/01/23 06:06:10;;;;;;;12.68;5.50;;;4.70;99.90;;;;;;5107353;28;20044;-64
2021/01/23 06:08:36;;;;;;;10.20;4.90;;;4.80;99.90;;;;;;5103144;28;20082;-65
2021/01/23 06:11:03;;;;;;;11.20;5.10;;;4.80;99.90;;;;;;5098060;28;20494;-65
2021/01/23 06:13:42;;;;;;;12.52;5.82;;;4.80;99.90;;;;;;5110091;28;20501;-64
2021/01/23 06:16:31;;;;;;;9.88;5.35;;;4.80;99.90;;;;;;5107845;28;20395;-65
2021/01/23 06:19:06;;;;;;;12.35;5.45;;;4.60;99.90;;;;;;5111266;28;20039;-65
2021/01/23 06:21:45;;;;;;;12.10;5.18;;;4.70;99.90;;;;;;5110431;28;20052;-65
2021/01/23 06:24:41;;;;;;;9.75;4.75;;;4.80;99.90;;;;;;5105545;28;21207;-65
2021/01/23 06:27:07;;;;;;;9.30;5.60;;;4.50;99.90;;;;;;5105138;28;20082;-64
2021/01/23 06:29:34;;;;;;;17.08;5.90;;;4.50;99.90;;;;;;5110401;28;20101;-65
2021/01/23 06:32:12;;;;;;;10.57;5.78;;;4.60;99.90;;;;;;5104761;28;20462;-65
2021/01/23 06:34:50;;;;;;;9.45;4.90;;;4.60;99.90;;;;;;5104579;28;20383;-65
2021/01/23 06:37:33;;;;;;;9.55;5.15;;;4.60;99.90;;;;;;5112049;28;20063;-65
2021/01/23 06:40:08;;;;;;;12.57;5.93;;;4.60;99.90;;;;;;5105639;28;20050;-65
2021/01/23 06:42:41;;;;;;;6.22;3.83;;;4.70;99.90;;;;;;5109437;28;20451;-65
2021/01/23 06:45:20;;;;;;;9.68;5.88;;;4.50;99.90;;;;;;5110268;28;20043;-66
2021/01/23 06:47:52;;;;;;;8.07;5.18;;;4.30;99.90;;;;;;5104490;28;20079;-65
2021/01/23 06:50:39;;;;;;;9.82;4.85;;;4.40;99.90;;;;;;5110270;28;20040;-65
2021/01/23 06:53:19;;;;;;;11.82;6.32;;;4.30;99.90;;;;;;5111343;28;20125;-65
2021/01/23 06:55:51;;;;;;;11.27;5.82;;;4.50;99.90;;;;;;5105249;28;20100;-65
2021/01/23 06:58:24;;;;;;;14.77;5.85;;;4.30;99.90;;;;;;5103724;28;20051;-65
2021/01/23 07:00:56;;;;;;;10.07;6.30;;;4.30;99.90;;;;;;5105266;28;20072;-65
2021/01/23 07:03:23;;;;;;;9.93;5.63;;;4.40;99.90;;;;;;5103948;28;20078;-65
2021/01/23 07:05:50;;;;;;;13.55;7.38;;;4.30;99.90;;;;;;5108390;28;20145;-65
2021/01/23 07:08:34;;;;;;;11.95;6.43;;;4.40;99.90;;;;;;5106015;28;20101;-65
2021/01/23 07:11:06;;;;;;;14.05;6.32;;;4.50;99.90;;;;;;5104454;28;20081;-65
2021/01/23 07:13:33;;;;;;;10.27;5.47;;;4.60;99.90;;;;;;5106222;28;20035;-65
2021/01/23 07:16:00;;;;;;;13.50;7.07;;;4.70;99.90;;;;;;5107260;28;20134;-65
2021/01/23 07:18:27;;;;;;;13.88;7.13;;;5.00;99.90;;;;;;5101746;28;20039;-65
2021/01/23 07:20:56;;;;;;;13.02;6.63;;;5.00;99.90;;;;;;5111360;28;20040;-65
2021/01/23 07:23:23;;;;;;;17.23;6.15;;;4.90;99.90;;;;;;5103395;28;20054;-65
2021/01/23 07:25:50;;;;;;;12.20;6.15;;;4.80;99.90;;;;;;5102717;28;20051;-65
2021/01/23 07:28:20;;;;;;;15.13;6.28;;;4.80;99.90;;;;;;5111152;28;20116;-65
2021/01/23 07:30:47;;;;;;;11.80;6.97;;;4.90;99.90;;;;;;5101762;28;20044;-65
2021/01/23 07:33:29;;;;;;;10.82;6.20;;;4.80;99.90;;;;;;5102670;28;20076;-66
2021/01/23 07:35:55;;;;;;;15.98;8.00;;;4.80;99.90;;;;;;5111953;28;20044;-65
2021/01/23 07:38:21;;;;;;;15.95;6.97;;;4.80;99.90;;;;;;5104537;28;20071;-65
2021/01/23 07:40:54;;;;;;;19.10;8.25;;;4.90;99.90;;;;;;5108232;28;20048;-65
2021/01/23 07:43:21;;;;;;;16.67;7.53;;;4.90;99.90;;;;;;5110401;28;20136;-65
2021/01/23 07:45:47;;;;;;;13.05;7.07;;;5.10;99.90;;;;;;5103855;28;20104;-65
2021/01/23 07:48:14;;;;;;;13.40;6.82;;;5.20;99.90;;;;;;5106488;28;20491;-65
2021/01/23 07:50:45;;;;;;;13.68;7.50;;;5.20;99.90;;;;;;5111718;28;20071;-65
2021/01/23 07:53:15;;;;;;;14.30;7.40;;;5.40;99.90;;;;;;5105587;28;20078;-65
2021/01/23 07:55:42;;;;;;;13.85;7.65;;;5.10;99.90;;;;;;5108514;28;20724;-65
2021/01/23 07:58:08;;;;;;;15.13;7.10;;;5.10;99.90;;;;;;5110217;28;20487;-64
2021/01/23 08:00:35;;;;;;;12.35;7.05;;;4.90;99.90;;;;;;5104309;28;20215;-65
2021/01/23 08:03:05;;;;;;;10.70;6.45;;;5.00;99.90;;;;;;5106093;28;20496;-65
2021/01/23 08:05:40;;;;;;;11.63;6.50;;;5.00;99.90;;;;;;5115498;28;20051;-65
2021/01/23 08:08:07;;;;;;;10.38;6.70;;;4.90;99.90;;;;;;5105091;28;20078;-65
2021/01/23 08:10:36;;;;;;;15.60;6.90;;;5.00;99.90;;;;;;5108933;28;20089;-64
2021/01/23 08:13:05;;;;;;;12.15;7.07;;;5.10;99.90;;;;;;5108998;28;20068;-65
2021/01/23 08:15:33;;;;;;;10.48;6.15;;;5.40;99.90;;;;;;5106724;27;20453;-65
2021/01/23 08:18:00;;;;;;;14.63;6.63;;;5.50;99.90;;;;;;5107532;28;20081;-65
2021/01/23 08:20:37;;;;;;;13.57;6.60;;;5.30;99.90;;;;;;5106263;28;20467;-66
2021/01/23 08:23:06;;;;;;;9.75;6.22;;;5.50;99.90;;;;;;5107650;28;20487;-65
2021/01/23 08:25:47;;;;;;;10.30;6.10;;;5.40;99.90;;;;;;5108263;28;20561;-65
2021/01/23 08:28:16;;;;;;;10.82;6.03;;;5.30;99.90;;;;;;5107480;28;20040;-65
2021/01/23 08:30:43;;;;;;;10.57;5.78;;;5.40;99.90;;;;;;5107961;28;20458;-66
2021/01/23 08:33:11;;;;;;;12.95;5.82;;;5.30;99.90;;;;;;5113537;28;20063;-66
2021/01/23 08:35:40;;;;;;;12.20;6.05;;;5.30;99.90;;;;;;5111676;28;20427;-66
2021/01/23 08:38:10;;;;;;;9.70;5.18;;;5.30;99.90;;;;;;5102888;28;20047;-66
2021/01/23 08:40:38;;;;;;;10.25;4.90;;;5.30;99.90;;;;;;5112661;28;20600;-66
2021/01/23 08:43:05;;;;;;;9.95;5.25;;;5.10;99.90;;;;;;5107199;28;20126;-65
2021/01/23 08:45:31;;;;;;;8.23;4.47;;;5.20;99.90;;;;;;5111362;27;20109;-65
2021/01/23 08:47:58;;;;;;;8.82;5.20;;;5.00;99.90;;;;;;5113858;28;20047;-65
2021/01/23 08:50:24;;;;;;;8.38;5.30;;;5.10;99.90;;;;;;5111005;28;20140;-65
2021/01/23 08:52:50;;;;;;;10.38;4.88;;;5.20;99.90;;;;;;5110001;28;20576;-66
2021/01/23 08:55:17;;;;;;;9.85;4.95;;;5.60;99.90;;;;;;5107197;28;20047;-65
2021/01/23 08:57:43;;;;;;;8.15;4.25;;;5.70;99.90;;;;;;5108094;28;20052;-65
2021/01/23 09:00:13;;;;;;;6.93;4.50;;;5.40;99.90;;;;;;5113105;28;20043;-66
2021/01/23 09:02:39;;;;;;;7.00;4.18;;;5.30;99.90;;;;;;5110213;28;20056;-65
2021/01/23 09:05:07;;;;;;;6.95;4.78;;;5.30;99.90;;;;;;5106879;28;20047;-66
2021/01/23 09:07:34;;;;;;;7.78;4.88;;;5.50;99.90;;;;;;5109032;28;20066;-66
2021/01/23 09:10:00;;;;;;;9.60;4.88;;;5.70;99.90;;;;;;5105583;28;20461;-66
2021/01/23 09:12:27;;;;;;;7.85;5.18;;;5.20;99.90;;;;;;5108245;28;20067;-65
2021/01/23 09:14:53;;;;;;;7.80;5.00;;;5.50;99.90;;;;;;5105805;28;20043;-65
2021/01/23 09:17:20;;;;;;;7.32;5.05;;;5.40;99.90;;;;;;5103915;28;20055;-65
2021/01/23 09:19:46;;;;;;;7.60;4.43;;;5.40;99.90;;;;;;5111393;28;20044;-66
2021/01/23 09:22:13;;;;;;;7.88;4.72;;;5.50;99.90;;;;;;5108539;28;20075;-66
2021/01/23 09:24:39;;;;;;;8.18;4.85;;;5.40;99.90;;;;;;5110388;27;20402;-65
2021/01/23 09:27:05;;;;;;;12.20;5.22;;;5.60;99.90;;;;;;5112894;28;20126;-66
2021/01/23 09:29:32;;;;;;;7.20;4.70;;;5.70;99.90;;;;;;5110192;28;20051;-65
2021/01/23 09:32:00;;;;;;;7.85;4.85;;;5.30;99.90;;;;;;5103750;28;20052;-65
2021/01/23 09:34:28;;;;;;;7.20;4.85;;;5.40;99.90;;;;;;5103401;28;20532;-66
2021/01/23 09:36:54;;;;;;;8.05;5.38;;;5.50;99.90;;;;;;5108425;28;20052;-65
2021/01/23 09:39:21;;;;;;;8.25;4.55;;;5.60;99.90;;;;;;5109579;28;20607;-66
2021/01/23 09:41:47;;;;;;;8.27;5.13;;;5.60;99.90;;;;;;5107920;28;20073;-66
2021/01/23 09:44:13;;;;;;;9.77;5.30;;;5.70;99.90;;;;;;5105475;28;20148;-65
2021/01/23 09:46:39;;;;;;;6.47;4.75;;;5.70;99.90;;;;;;5101213;28;20437;-66
2021/01/23 09:49:06;;;;;;;9.43;5.55;;;5.70;99.90;;;;;;5108881;28;20552;-64
2021/01/23 09:51:32;;;;;;;8.93;5.22;;;5.90;99.90;;;;;;5102309;28;20160;-66
2021/01/23 09:53:58;;;;;;;8.13;5.00;;;6.00;99.90;;;;;;5105279;28;20071;-65
2021/01/23 09:56:24;;;;;;;9.35;5.47;;;5.90;99.90;;;;;;5105805;28;20071;-65
2021/01/23 09:58:51;;;;;;;8.45;5.00;;;5.90;99.90;;;;;;5097272;28;20522;-66
2021/01/23 10:01:17;;;;;;;9.38;5.43;;;5.90;99.90;;;;;;5103993;27;20948;-65
2021/01/23 10:03:44;;;;;;;7.78;5.20;;;6.10;99.90;;;;;;5108474;28;20059;-65
2021/01/23 10:06:10;;;;;;;8.10;5.40;;;6.00;99.90;;;;;;5111654;28;20051;-65
2021/01/23 10:08:36;;;;;;;10.30;5.97;;;6.00;99.90;;;;;;5104500;28;20548;-68
2021/01/23 10:11:03;;;;;;;9.77;5.65;;;6.00;99.90;;;;;;5102019;28;20607;-74
2021/01/23 10:13:29;;;;;;;8.68;5.10;;;6.00;99.90;;;;;;5112005;28;20065;-70
2021/01/23 10:15:55;;;;;;;7.72;5.13;;;5.90;99.90;;;;;;5097857;28;20127;-70
2021/01/23 10:18:22;;;;;;;7.80;5.55;;;5.90;99.90;;;;;;5104313;28;20093;-69
2021/01/23 10:20:49;;;;;;;9.70;6.07;;;6.10;99.90;;;;;;5108549;28;20051;-71
2021/01/23 10:23:15;;;;;;;10.40;6.22;;;6.30;99.90;;;;;;5105567;28;20571;-70
2021/01/23 10:25:41;;;;;;;12.20;5.68;;;6.20;99.90;;;;;;5106032;28;20056;-69
2021/01/23 10:28:08;;;;;;;9.70;5.97;;;6.00;99.90;;;;;;5096419;28;20562;-69
2021/01/23 10:30:34;;;;;;;10.65;5.57;;;6.20;99.90;;;;;;5104069;28;20405;-67
2021/01/23 10:33:00;;;;;;;13.82;5.75;;;6.30;99.90;;;;;;5106452;28;20086;-68
2021/01/23 10:35:27;;;;;;;9.55;5.95;;;6.30;99.90;;;;;;5103296;28;20051;-68
2021/01/23 10:37:53;;;;;;;8.98;5.70;;;6.30;99.90;;;;;;5105821;28;20051;-68
2021/01/23 10:40:20;;;;;;;7.80;5.13;;;7.00;99.90;;;;;;5104590;28;20050;-69
2021/01/23 10:42:46;;;;;;;8.32;5.47;;;7.20;99.90;;;;;;5103542;28;20104;-68
2021/01/23 10:45:13;;;;;;;9.93;5.75;;;7.10;99.90;;;;;;5098553;28;20502;-68
2021/01/23 10:47:39;;;;;;;10.68;5.65;;;7.20;99.90;;;;;;5102419;28;20047;-69
2021/01/23 10:50:07;;;;;;;10.75;5.65;;;7.30;99.90;;;;;;5101827;28;20052;-69
2021/01/23 10:52:34;;;;;;;7.97;5.68;;;7.20;99.90;;;;;;5106489;28;20489;-68
2021/01/23 10:55:01;;;;;;;9.57;5.70;;;7.10;99.90;;;;;;5102812;28;20455;-68
2021/01/23 10:57:28;;;;;;;10.27;5.55;;;7.00;99.90;;;;;;5114850;28;20047;-67
2021/01/23 10:59:55;;;;;;;7.97;5.03;;;7.60;99.90;;;;;;5096863;28;20079;-69
2021/01/23 11:02:21;;;;;;;9.13;5.30;;;8.00;99.90;;;;;;5101862;28;20626;-68
2021/01/23 11:04:48;;;;;;;7.90;4.97;;;7.60;99.90;;;;;;5105611;28;20093;-67
2021/01/23 11:07:14;;;;;;;9.43;5.18;;;7.70;99.90;;;;;;5103873;28;20113;-66
2021/01/23 11:09:41;;;;;;;11.57;5.40;;;7.70;99.90;;;;;;5101939;28;20081;-66
2021/01/23 11:12:12;;;;;;;9.52;5.43;;;7.60;99.90;;;;;;5105394;28;20058;-67
2021/01/23 11:14:38;;;;;;;7.65;4.55;;;7.30;99.90;;;;;;5105030;28;20044;-66
2021/01/23 11:17:05;;;;;;;9.32;5.38;;;7.10;99.90;;;;;;5102236;28;20071;-71
2021/01/23 11:19:32;;;;;;;8.63;5.00;;;7.10;99.90;;;;;;5105749;28;20425;-68
2021/01/23 11:21:58;;;;;;;9.27;5.47;;;7.10;99.90;;;;;;5102185;28;20207;-69
2021/01/23 11:24:24;;;;;;;10.43;5.50;;;7.10;99.90;;;;;;5102759;28;20097;-68
2021/01/23 11:26:51;;;;;;;8.30;5.20;;;7.10;99.90;;;;;;5101798;28;20180;-70
2021/01/23 11:29:17;;;;;;;7.65;5.13;;;6.90;99.90;;;;;;5101518;28;20215;-74
2021/01/23 11:31:44;;;;;;;7.63;5.32;;;6.80;99.90;;;;;;5098992;28;20494;-71
2021/01/23 11:34:10;;;;;;;10.93;5.07;;;6.80;99.90;;;;;;5106305;28;20479;-71
2021/01/23 11:36:36;;;;;;;9.48;4.85;;;6.70;99.90;;;;;;5099092;28;20044;-71
2021/01/23 11:39:03;;;;;;;9.77;4.88;;;6.70;99.90;;;;;;5102530;28;20044;-71
2021/01/23 11:41:29;;;;;;;6.68;4.72;;;6.60;99.90;;;;;;5110411;28;20116;-71
2021/01/23 11:43:56;;;;;;;7.03;4.43;;;6.70;99.90;;;;;;5108373;27;20117;-70
2021/01/23 11:46:22;;;;;;;10.70;5.20;;;6.80;99.90;;;;;;5102986;28;20195;-71
2021/01/23 11:48:48;;;;;;;9.35;4.97;;;7.10;99.90;;;;;;5106451;28;20120;-71
2021/01/23 11:51:15;;;;;;;7.90;5.20;;;6.90;99.90;;;;;;5106320;28;20590;-73
2021/01/23 11:53:42;;;;;;;9.65;4.72;;;6.80;99.90;;;;;;5108940;28;20173;-72
2021/01/23 11:56:08;;;;;;;11.30;5.32;;;6.70;99.90;;;;;;5107354;28;20809;-71
2021/01/23 11:58:35;;;;;;;11.35;5.20;;;6.70;99.90;;;;;;5106855;28;20131;-71
2021/01/23 12:01:01;;;;;;;11.57;4.68;;;6.90;99.90;;;;;;5108664;27;20055;-71
2021/01/23 12:03:28;;;;;;;8.18;4.80;;;6.90;99.90;;;;;;5106852;28;20109;-71
2021/01/23 12:05:54;;;;;;;11.20;4.75;;;6.70;99.90;;;;;;5105062;28;20069;-72
2021/01/23 12:08:21;;;;;;;11.70;4.80;;;6.90;99.90;;;;;;5107759;28;20146;-72
2021/01/23 12:10:47;;;;;;;10.65;4.75;;;6.80;99.90;;;;;;5100906;28;20047;-72
2021/01/23 12:13:13;;;;;;;9.63;5.30;;;6.90;99.90;;;;;;5108375;28;20050;-72
2021/01/23 12:15:39;;;;;;;7.70;4.43;;;6.90;99.90;;;;;;5102778;27;20071;-71
2021/01/23 12:18:06;;;;;;;10.93;4.53;;;7.10;99.90;;;;;;5107860;28;20083;-72
2021/01/23 12:20:33;;;;;;;8.82;4.40;;;7.40;99.90;;;;;;5110580;28;20383;-72
2021/01/23 12:23:00;;;;;;;7.07;4.30;;;7.30;99.90;;;;;;5107449;28;20051;-72
2021/01/23 12:25:27;;;;;;;8.75;4.40;;;7.20;99.90;;;;;;5107108;28;20554;-72
2021/01/23 12:27:54;;;;;;;6.10;3.78;;;7.30;99.90;;;;;;5108651;28;20078;-72
2021/01/23 12:30:21;;;;;;;6.47;4.10;;;7.20;99.90;;;;;;5098005;27;20563;-72
2021/01/23 12:32:47;;;;;;;8.00;4.28;;;7.00;99.90;;;;;;5106338;28;20181;-73
2021/01/23 12:35:14;;;;;;;7.28;3.83;;;7.20;99.90;;;;;;5109190;28;20050;-72
2021/01/23 12:37:42;;;;;;;7.93;4.20;;;7.00;99.90;;;;;;5106106;28;20071;-72
2021/01/23 12:40:09;;;;;;;6.85;3.67;;;7.00;99.90;;;;;;5107177;28;20402;-71
2021/01/23 12:42:36;;;;;;;8.63;3.67;;;7.30;99.90;;;;;;5107587;28;20097;-72
2021/01/23 12:45:04;;;;;;;6.78;3.70;;;7.10;99.90;;;;;;5109657;28;20847;-72
2021/01/23 12:47:31;;;;;;;7.50;3.33;;;7.40;99.90;;;;;;5108718;28;20051;-72
2021/01/23 12:49:58;;;;;;;5.15;3.30;;;7.50;99.90;;;;;;5103835;28;20057;-71
2021/01/23 12:52:24;;;;;;;4.88;3.00;;;7.50;99.90;;;;;;5108614;28;20079;-71
2021/01/23 12:54:51;;;;;;;7.70;3.45;;;7.50;99.90;;;;;;5106909;28;20044;-77
2021/01/23 12:57:18;;;;;;;7.78;3.42;;;7.30;99.90;;;;;;5097313;27;20139;-81
2021/01/23 12:59:44;;;;;;;8.85;3.53;;;7.30;99.90;;;;;;5108354;28;20084;-75
2021/01/23 13:02:10;;;;;;;7.70;3.53;;;7.30;99.90;;;;;;5102224;27;20055;-79